Terminal Aerodrome Forecast
Issued by NWS

Home | Current Version | Previous Version | Text Only | Print | Product List | Glossary On
Versions: 1 2 3 4 5 6 7 8 9 10 11 12 13 14 15
239
FTUS45 KGGW 311126 AAA
TAFSDY
TAF AMD
KSDY 311126Z 3111/0106 28012KT P6SM -SHRA OVC060
     FM311600 32019G27KT 6SM SHRA OVC010
     FM311800 32021G29KT 6SM -SHRA OVC015
     FM312100 32022G31KT P6SM -SHRA OVC025
     FM010000 33017G25KT P6SM VCSH OVC035
     FM010300 32010KT P6SM BKN035=

USA.gov is the U.S. government's official web portal to all federal, state and local government web resources and services.